sensor_id;sensor_type;location;lat;lon;timestamp;temperature;humidity
5334;DHT22;2689;50.954;7.116;2024-01-10T00:00:26;-4.60;95.60
5334;DHT22;2689;50.954;7.116;2024-01-10T00:02:53;-4.60;95.60
5334;DHT22;2689;50.954;7.116;2024-01-10T00:05:21;-4.70;95.40
5334;DHT22;2689;50.954;7.116;2024-01-10T00:07:48;-4.70;95.60
5334;DHT22;2689;50.954;7.116;2024-01-10T00:10:15;-4.70;95.70
5334;DHT22;2689;50.954;7.116;2024-01-10T00:12:41;-4.70;95.70
5334;DHT22;2689;50.954;7.116;2024-01-10T00:15:10;-4.70;95.50
5334;DHT22;2689;50.954;7.116;2024-01-10T00:17:36;-4.70;95.60
5334;DHT22;2689;50.954;7.116;2024-01-10T00:20:06;-4.60;95.60
5334;DHT22;2689;50.954;7.116;2024-01-10T00:22:34;-4.60;95.40
5334;DHT22;2689;50.954;7.116;2024-01-10T00:25:01;-4.60;95.30
5334;DHT22;2689;50.954;7.116;2024-01-10T00:27:28;-4.50;95.20
5334;DHT22;2689;50.954;7.116;2024-01-10T00:29:55;-4.50;95.20
5334;DHT22;2689;50.954;7.116;2024-01-10T00:32:22;-4.50;95.20
5334;DHT22;2689;50.954;7.116;2024-01-10T00:34:49;-4.50;95.20
5334;DHT22;2689;50.954;7.116;2024-01-10T00:37:15;-4.50;95.20
5334;DHT22;2689;50.954;7.116;2024-01-10T00:39:43;-4.50;95.40
5334;DHT22;2689;50.954;7.116;2024-01-10T00:42:10;-4.60;95.30
5334;DHT22;2689;50.954;7.116;2024-01-10T00:44:37;-4.50;95.30
5334;DHT22;2689;50.954;7.116;2024-01-10T00:47:04;-4.50;95.00
5334;DHT22;2689;50.954;7.116;2024-01-10T00:49:31;-4.60;95.30
5334;DHT22;2689;50.954;7.116;2024-01-10T00:51:58;-4.60;95.20
5334;DHT22;2689;50.954;7.116;2024-01-10T00:54:24;-4.60;95.40
5334;DHT22;2689;50.954;7.116;2024-01-10T00:56:53;-4.60;95.20
5334;DHT22;2689;50.954;7.116;2024-01-10T00:59:19;-4.50;95.10
5334;DHT22;2689;50.954;7.116;2024-01-10T01:01:46;-4.50;95.10
5334;DHT22;2689;50.954;7.116;2024-01-10T01:04:13;-4.50;94.80
5334;DHT22;2689;50.954;7.116;2024-01-10T01:06:39;-4.50;94.90
5334;DHT22;2689;50.954;7.116;2024-01-10T01:09:06;-4.50;95.00
5334;DHT22;2689;50.954;7.116;2024-01-10T01:11:33;-4.50;95.10
5334;DHT22;2689;50.954;7.116;2024-01-10T01:14:01;-4.50;95.00
5334;DHT22;2689;50.954;7.116;2024-01-10T01:16:26;-4.50;95.00
5334;DHT22;2689;50.954;7.116;2024-01-10T01:18:53;-4.50;94.90
5334;DHT22;2689;50.954;7.116;2024-01-10T01:21:20;-4.60;94.80
5334;DHT22;2689;50.954;7.116;2024-01-10T01:23:47;-4.60;94.80
5334;DHT22;2689;50.954;7.116;2024-01-10T01:26:13;-4.60;94.80
5334;DHT22;2689;50.954;7.116;2024-01-10T01:28:40;-4.50;94.70
5334;DHT22;2689;50.954;7.116;2024-01-10T01:31:08;-4.60;94.50
5334;DHT22;2689;50.954;7.116;2024-01-10T01:33:35;-4.70;94.80
5334;DHT22;2689;50.954;7.116;2024-01-10T01:36:02;-4.70;95.10
5334;DHT22;2689;50.954;7.116;2024-01-10T01:38:29;-4.60;95.30
5334;DHT22;2689;50.954;7.116;2024-01-10T01:40:55;-4.60;95.10
5334;DHT22;2689;50.954;7.116;2024-01-10T01:43:23;-4.60;94.90
5334;DHT22;2689;50.954;7.116;2024-01-10T01:45:51;-4.60;94.60
5334;DHT22;2689;50.954;7.116;2024-01-10T01:48:21;-4.70;94.70
5334;DHT22;2689;50.954;7.116;2024-01-10T01:50:50;-4.70;94.90
5334;DHT22;2689;50.954;7.116;2024-01-10T01:53:17;-4.70;94.90
5334;DHT22;2689;50.954;7.116;2024-01-10T01:55:45;-4.70;94.90
5334;DHT22;2689;50.954;7.116;2024-01-10T01:58:12;-4.70;95.00
5334;DHT22;2689;50.954;7.116;2024-01-10T02:00:39;-4.70;95.20
5334;DHT22;2689;50.954;7.116;2024-01-10T02:03:07;-4.80;95.10
5334;DHT22;2689;50.954;7.116;2024-01-10T02:05:35;-4.90;95.40
5334;DHT22;2689;50.954;7.116;2024-01-10T02:08:12;-5.00;95.70
5334;DHT22;2689;50.954;7.116;2024-01-10T02:10:39;-5.10;96.00
5334;DHT22;2689;50.954;7.116;2024-01-10T02:13:06;-5.20;96.10
5334;DHT22;2689;50.954;7.116;2024-01-10T02:15:34;-5.10;96.30
5334;DHT22;2689;50.954;7.116;2024-01-10T02:18:00;-5.20;95.70
5334;DHT22;2689;50.954;7.116;2024-01-10T02:20:27;-5.30;95.80
5334;DHT22;2689;50.954;7.116;2024-01-10T02:22:55;-5.20;96.00
5334;DHT22;2689;50.954;7.116;2024-01-10T02:25:23;-5.40;95.40
5334;DHT22;2689;50.954;7.116;2024-01-10T02:27:50;-5.30;95.60
5334;DHT22;2689;50.954;7.116;2024-01-10T02:30:17;-5.10;95.30
5334;DHT22;2689;50.954;7.116;2024-01-10T02:32:44;-5.40;94.60
5334;DHT22;2689;50.954;7.116;2024-01-10T02:35:10;-5.50;95.00
5334;DHT22;2689;50.954;7.116;2024-01-10T02:37:37;-5.60;94.70
5334;DHT22;2689;50.954;7.116;2024-01-10T02:40:05;-5.70;94.90
5334;DHT22;2689;50.954;7.116;2024-01-10T02:42:36;-5.60;95.20
5334;DHT22;2689;50.954;7.116;2024-01-10T02:45:03;-5.60;95.10
5334;DHT22;2689;50.954;7.116;2024-01-10T02:47:32;-5.50;95.00
5334;DHT22;2689;50.954;7.116;2024-01-10T02:49:59;-5.40;94.80
5334;DHT22;2689;50.954;7.116;2024-01-10T02:52:25;-5.40;94.60
5334;DHT22;2689;50.954;7.116;2024-01-10T02:54:52;-5.50;94.60
5334;DHT22;2689;50.954;7.116;2024-01-10T02:57:19;-5.60;95.00
5334;DHT22;2689;50.954;7.116;2024-01-10T02:59:47;-5.60;95.20
5334;DHT22;2689;50.954;7.116;2024-01-10T03:02:14;-5.60;95.40
5334;DHT22;2689;50.954;7.116;2024-01-10T03:04:41;-5.70;95.20
5334;DHT22;2689;50.954;7.116;2024-01-10T03:07:09;-5.70;95.50
5334;DHT22;2689;50.954;7.116;2024-01-10T03:09:36;-5.60;95.40
5334;DHT22;2689;50.954;7.116;2024-01-10T03:12:03;-5.60;95.10
5334;DHT22;2689;50.954;7.116;2024-01-10T03:14:30;-5.50;95.30
5334;DHT22;2689;50.954;7.116;2024-01-10T03:16:58;-5.40;95.20
5334;DHT22;2689;50.954;7.116;2024-01-10T03:19:25;-5.30;94.80
5334;DHT22;2689;50.954;7.116;2024-01-10T03:21:52;-5.50;94.30
5334;DHT22;2689;50.954;7.116;2024-01-10T03:24:19;-5.50;94.70
5334;DHT22;2689;50.954;7.116;2024-01-10T03:26:46;-5.40;94.90
5334;DHT22;2689;50.954;7.116;2024-01-10T03:29:12;-5.40;94.30
5334;DHT22;2689;50.954;7.116;2024-01-10T03:31:39;-5.40;93.80
5334;DHT22;2689;50.954;7.116;2024-01-10T03:34:07;-5.40;93.30
5334;DHT22;2689;50.954;7.116;2024-01-10T03:36:34;-5.40;93.00
5334;DHT22;2689;50.954;7.116;2024-01-10T03:39:01;-5.40;92.90
5334;DHT22;2689;50.954;7.116;2024-01-10T03:41:27;-5.50;93.00
5334;DHT22;2689;50.954;7.116;2024-01-10T03:43:54;-5.70;93.70
5334;DHT22;2689;50.954;7.116;2024-01-10T03:46:21;-5.60;94.00
5334;DHT22;2689;50.954;7.116;2024-01-10T03:48:47;-5.70;94.00
5334;DHT22;2689;50.954;7.116;2024-01-10T03:51:16;-5.70;94.30
5334;DHT22;2689;50.954;7.116;2024-01-10T03:53:43;-5.60;94.50
5334;DHT22;2689;50.954;7.116;2024-01-10T03:56:11;-5.50;94.50
5334;DHT22;2689;50.954;7.116;2024-01-10T03:58:38;-5.40;94.40
5334;DHT22;2689;50.954;7.116;2024-01-10T04:01:05;-5.40;94.30
5334;DHT22;2689;50.954;7.116;2024-01-10T04:03:32;-5.40;94.20
5334;DHT22;2689;50.954;7.116;2024-01-10T04:06:00;-5.40;93.90
5334;DHT22;2689;50.954;7.116;2024-01-10T04:08:28;-5.40;93.90
5334;DHT22;2689;50.954;7.116;2024-01-10T04:10:55;-5.40;94.00
5334;DHT22;2689;50.954;7.116;2024-01-10T04:13:22;-5.40;94.20
5334;DHT22;2689;50.954;7.116;2024-01-10T04:15:48;-5.40;94.10
5334;DHT22;2689;50.954;7.116;2024-01-10T04:18:15;-5.50;94.10
5334;DHT22;2689;50.954;7.116;2024-01-10T04:20:42;-5.50;94.40
5334;DHT22;2689;50.954;7.116;2024-01-10T04:23:09;-5.40;94.60
5334;DHT22;2689;50.954;7.116;2024-01-10T04:25:37;-5.40;94.50
5334;DHT22;2689;50.954;7.116;2024-01-10T04:28:04;-5.60;94.40
5334;DHT22;2689;50.954;7.116;2024-01-10T04:30:31;-5.70;94.70
5334;DHT22;2689;50.954;7.116;2024-01-10T04:32:58;-5.80;95.10
5334;DHT22;2689;50.954;7.116;2024-01-10T04:35:25;-5.70;95.40
5334;DHT22;2689;50.954;7.116;2024-01-10T04:37:51;-5.80;95.30
5334;DHT22;2689;50.954;7.116;2024-01-10T04:40:18;-5.90;95.20
5334;DHT22;2689;50.954;7.116;2024-01-10T04:42:46;-5.90;95.60
5334;DHT22;2689;50.954;7.116;2024-01-10T04:45:13;-5.80;95.70
5334;DHT22;2689;50.954;7.116;2024-01-10T04:47:39;-5.80;95.90
5334;DHT22;2689;50.954;7.116;2024-01-10T04:50:07;-5.90;95.90
5334;DHT22;2689;50.954;7.116;2024-01-10T04:52:34;-5.80;96.10
5334;DHT22;2689;50.954;7.116;2024-01-10T04:55:00;-5.70;95.90
5334;DHT22;2689;50.954;7.116;2024-01-10T04:57:28;-5.60;95.80
5334;DHT22;2689;50.954;7.116;2024-01-10T04:59:56;-5.60;95.60
5334;DHT22;2689;50.954;7.116;2024-01-10T05:02:22;-5.60;95.50
5334;DHT22;2689;50.954;7.116;2024-01-10T05:04:49;-5.60;95.50
5334;DHT22;2689;50.954;7.116;2024-01-10T05:07:16;-5.50;95.30
5334;DHT22;2689;50.954;7.116;2024-01-10T05:09:42;-5.50;95.20
5334;DHT22;2689;50.954;7.116;2024-01-10T05:12:09;-5.50;95.10
5334;DHT22;2689;50.954;7.116;2024-01-10T05:14:36;-5.50;95.20
5334;DHT22;2689;50.954;7.116;2024-01-10T05:17:04;-5.50;95.30
5334;DHT22;2689;50.954;7.116;2024-01-10T05:19:31;-5.50;95.50
5334;DHT22;2689;50.954;7.116;2024-01-10T05:21:57;-5.40;95.60
5334;DHT22;2689;50.954;7.116;2024-01-10T05:24:25;-5.30;95.60
5334;DHT22;2689;50.954;7.116;2024-01-10T05:26:52;-5.30;95.50
5334;DHT22;2689;50.954;7.116;2024-01-10T05:29:18;-5.30;95.30
5334;DHT22;2689;50.954;7.116;2024-01-10T05:31:47;-5.30;95.00
5334;DHT22;2689;50.954;7.116;2024-01-10T05:34:15;-5.30;95.00
5334;DHT22;2689;50.954;7.116;2024-01-10T05:36:42;-5.20;94.80
5334;DHT22;2689;50.954;7.116;2024-01-10T05:39:09;-5.30;94.70
5334;DHT22;2689;50.954;7.116;2024-01-10T05:41:36;-5.30;95.00
5334;DHT22;2689;50.954;7.116;2024-01-10T05:44:05;-5.40;95.50
5334;DHT22;2689;50.954;7.116;2024-01-10T05:46:31;-5.60;95.80
5334;DHT22;2689;50.954;7.116;2024-01-10T05:48:58;-5.50;96.00
5334;DHT22;2689;50.954;7.116;2024-01-10T05:51:26;-5.40;96.20
5334;DHT22;2689;50.954;7.116;2024-01-10T05:53:53;-5.50;96.20
5334;DHT22;2689;50.954;7.116;2024-01-10T05:56:20;-5.40;96.40
5334;DHT22;2689;50.954;7.116;2024-01-10T05:58:46;-5.40;96.20
5334;DHT22;2689;50.954;7.116;2024-01-10T06:01:13;-5.40;96.20
5334;DHT22;2689;50.954;7.116;2024-01-10T06:03:40;-5.50;96.00
5334;DHT22;2689;50.954;7.116;2024-01-10T06:06:07;-5.50;96.00
5334;DHT22;2689;50.954;7.116;2024-01-10T06:08:36;-5.40;96.00
5334;DHT22;2689;50.954;7.116;2024-01-10T06:11:03;-5.30;95.80
5334;DHT22;2689;50.954;7.116;2024-01-10T06:13:34;-5.30;95.60
5334;DHT22;2689;50.954;7.116;2024-01-10T06:16:00;-5.20;95.30
5334;DHT22;2689;50.954;7.116;2024-01-10T06:18:28;-5.20;95.20
5334;DHT22;2689;50.954;7.116;2024-01-10T06:20:54;-5.30;94.90
5334;DHT22;2689;50.954;7.116;2024-01-10T06:23:21;-5.20;95.30
5334;DHT22;2689;50.954;7.116;2024-01-10T06:25:49;-5.20;95.30
5334;DHT22;2689;50.954;7.116;2024-01-10T06:28:16;-5.20;95.00
5334;DHT22;2689;50.954;7.116;2024-01-10T06:30:43;-5.30;95.00
5334;DHT22;2689;50.954;7.116;2024-01-10T06:33:09;-5.20;95.20
5334;DHT22;2689;50.954;7.116;2024-01-10T06:35:36;-5.20;95.30
5334;DHT22;2689;50.954;7.116;2024-01-10T06:38:03;-5.10;95.20
5334;DHT22;2689;50.954;7.116;2024-01-10T06:40:30;-5.10;95.00
5334;DHT22;2689;50.954;7.116;2024-01-10T06:42:58;-5.10;94.90
5334;DHT22;2689;50.954;7.116;2024-01-10T06:45:26;-5.10;94.80
5334;DHT22;2689;50.954;7.116;2024-01-10T06:47:52;-5.10;95.00
5334;DHT22;2689;50.954;7.116;2024-01-10T06:50:19;-5.10;95.10
5334;DHT22;2689;50.954;7.116;2024-01-10T06:52:47;-5.00;95.30
5334;DHT22;2689;50.954;7.116;2024-01-10T06:55:14;-5.20;95.80
5334;DHT22;2689;50.954;7.116;2024-01-10T06:57:41;-5.20;96.10
5334;DHT22;2689;50.954;7.116;2024-01-10T07:00:10;-5.30;96.30
5334;DHT22;2689;50.954;7.116;2024-01-10T07:02:37;-5.30;96.80
5334;DHT22;2689;50.954;7.116;2024-01-10T07:05:07;-5.20;96.80
5334;DHT22;2689;50.954;7.116;2024-01-10T07:07:34;-5.20;96.50
5334;DHT22;2689;50.954;7.116;2024-01-10T07:10:01;-5.20;96.50
5334;DHT22;2689;50.954;7.116;2024-01-10T07:12:30;-5.20;96.60
5334;DHT22;2689;50.954;7.116;2024-01-10T07:14:57;-5.20;96.80
5334;DHT22;2689;50.954;7.116;2024-01-10T07:17:25;-5.30;97.20
5334;DHT22;2689;50.954;7.116;2024-01-10T07:19:52;-5.40;97.40
5334;DHT22;2689;50.954;7.116;2024-01-10T07:22:19;-5.40;98.30
5334;DHT22;2689;50.954;7.116;2024-01-10T07:24:53;-5.30;98.20
5334;DHT22;2689;50.954;7.116;2024-01-10T07:27:20;-5.20;98.00
5334;DHT22;2689;50.954;7.116;2024-01-10T07:29:47;-5.20;98.20
5334;DHT22;2689;50.954;7.116;2024-01-10T07:32:14;-5.10;98.10
5334;DHT22;2689;50.954;7.116;2024-01-10T07:34:42;-5.10;97.80
5334;DHT22;2689;50.954;7.116;2024-01-10T07:37:10;-5.00;97.80
5334;DHT22;2689;50.954;7.116;2024-01-10T07:39:37;-5.00;97.80
5334;DHT22;2689;50.954;7.116;2024-01-10T07:42:04;-5.10;97.80
5334;DHT22;2689;50.954;7.116;2024-01-10T07:44:30;-5.00;98.10
5334;DHT22;2689;50.954;7.116;2024-01-10T07:46:57;-5.00;97.50
5334;DHT22;2689;50.954;7.116;2024-01-10T07:49:24;-5.00;97.40
5334;DHT22;2689;50.954;7.116;2024-01-10T07:51:53;-4.90;97.00
5334;DHT22;2689;50.954;7.116;2024-01-10T07:54:22;-4.90;96.30
5334;DHT22;2689;50.954;7.116;2024-01-10T07:56:49;-5.00;96.10
5334;DHT22;2689;50.954;7.116;2024-01-10T07:59:16;-5.10;96.00
5334;DHT22;2689;50.954;7.116;2024-01-10T08:01:44;-5.10;96.40
5334;DHT22;2689;50.954;7.116;2024-01-10T08:04:20;-5.10;96.00
5334;DHT22;2689;50.954;7.116;2024-01-10T08:06:48;-5.10;95.90
5334;DHT22;2689;50.954;7.116;2024-01-10T08:09:16;-5.20;95.00
5334;DHT22;2689;50.954;7.116;2024-01-10T08:11:44;-5.10;95.00
5334;DHT22;2689;50.954;7.116;2024-01-10T08:14:11;-5.30;94.10
5334;DHT22;2689;50.954;7.116;2024-01-10T08:16:38;-5.30;94.40
5334;DHT22;2689;50.954;7.116;2024-01-10T08:19:05;-5.10;94.80
5334;DHT22;2689;50.954;7.116;2024-01-10T08:21:32;-5.00;94.80
5334;DHT22;2689;50.954;7.116;2024-01-10T08:23:59;-4.80;94.80
5334;DHT22;2689;50.954;7.116;2024-01-10T08:26:28;-4.70;94.70
5334;DHT22;2689;50.954;7.116;2024-01-10T08:28:55;-4.60;94.40
5334;DHT22;2689;50.954;7.116;2024-01-10T08:31:22;-4.50;94.40
5334;DHT22;2689;50.954;7.116;2024-01-10T08:33:54;-4.40;94.30
5334;DHT22;2689;50.954;7.116;2024-01-10T08:36:22;-4.30;94.40
5334;DHT22;2689;50.954;7.116;2024-01-10T08:38:49;-4.20;94.30
5334;DHT22;2689;50.954;7.116;2024-01-10T08:41:17;-4.10;93.90
5334;DHT22;2689;50.954;7.116;2024-01-10T08:43:46;-4.00;93.60
5334;DHT22;2689;50.954;7.116;2024-01-10T08:46:13;-3.90;93.60
5334;DHT22;2689;50.954;7.116;2024-01-10T08:48:40;-3.80;93.20
5334;DHT22;2689;50.954;7.116;2024-01-10T08:51:07;-3.70;93.10
5334;DHT22;2689;50.954;7.116;2024-01-10T08:53:35;-3.60;93.00
5334;DHT22;2689;50.954;7.116;2024-01-10T08:56:02;-3.50;93.00
5334;DHT22;2689;50.954;7.116;2024-01-10T08:58:29;-3.50;92.80
5334;DHT22;2689;50.954;7.116;2024-01-10T09:00:57;-3.40;92.50
5334;DHT22;2689;50.954;7.116;2024-01-10T09:03:24;-3.30;92.60
5334;DHT22;2689;50.954;7.116;2024-01-10T09:05:50;-3.20;93.00
5334;DHT22;2689;50.954;7.116;2024-01-10T09:08:18;-2.60;93.30
5334;DHT22;2689;50.954;7.116;2024-01-10T09:10:44;-1.90;93.00
5334;DHT22;2689;50.954;7.116;2024-01-10T09:13:11;-0.90;92.00
5334;DHT22;2689;50.954;7.116;2024-01-10T09:15:38;-0.20;90.20
5334;DHT22;2689;50.954;7.116;2024-01-10T09:18:06;0.10;84.30
5334;DHT22;2689;50.954;7.116;2024-01-10T09:20:34;0.10;81.00
5334;DHT22;2689;50.954;7.116;2024-01-10T09:23:01;0.00;79.30
5334;DHT22;2689;50.954;7.116;2024-01-10T09:25:28;-0.20;78.20
5334;DHT22;2689;50.954;7.116;2024-01-10T09:27:55;-0.40;78.10
5334;DHT22;2689;50.954;7.116;2024-01-10T09:30:21;-0.40;78.40
5334;DHT22;2689;50.954;7.116;2024-01-10T09:32:49;-0.40;78.00
5334;DHT22;2689;50.954;7.116;2024-01-10T09:35:17;-0.40;77.80
5334;DHT22;2689;50.954;7.116;2024-01-10T09:37:44;-0.20;77.80
5334;DHT22;2689;50.954;7.116;2024-01-10T09:40:14;0.10;77.70
5334;DHT22;2689;50.954;7.116;2024-01-10T09:42:42;0.30;78.00
5334;DHT22;2689;50.954;7.116;2024-01-10T09:45:10;-0.30;74.90
5334;DHT22;2689;50.954;7.116;2024-01-10T09:47:39;-0.60;75.50
5334;DHT22;2689;50.954;7.116;2024-01-10T09:50:08;-0.80;76.50
5334;DHT22;2689;50.954;7.116;2024-01-10T09:52:41;-1.00;76.60
5334;DHT22;2689;50.954;7.116;2024-01-10T09:55:11;-0.90;77.20
5334;DHT22;2689;50.954;7.116;2024-01-10T09:57:40;-1.00;77.30
5334;DHT22;2689;50.954;7.116;2024-01-10T10:00:10;-1.20;77.20
5334;DHT22;2689;50.954;7.116;2024-01-10T10:02:38;-1.20;77.90
5334;DHT22;2689;50.954;7.116;2024-01-10T10:05:09;-1.40;78.20
5334;DHT22;2689;50.954;7.116;2024-01-10T10:07:47;-1.70;77.60
5334;DHT22;2689;50.954;7.116;2024-01-10T10:10:15;-1.60;78.30
5334;DHT22;2689;50.954;7.116;2024-01-10T10:12:42;-1.50;78.00
5334;DHT22;2689;50.954;7.116;2024-01-10T10:15:11;-1.60;78.30
5334;DHT22;2689;50.954;7.116;2024-01-10T10:17:39;-1.50;78.40
5334;DHT22;2689;50.954;7.116;2024-01-10T10:20:13;-1.50;78.40
5334;DHT22;2689;50.954;7.116;2024-01-10T10:22:41;-1.60;78.30
5334;DHT22;2689;50.954;7.116;2024-01-10T10:25:18;-1.50;78.80
5334;DHT22;2689;50.954;7.116;2024-01-10T10:27:44;-1.30;79.30
5334;DHT22;2689;50.954;7.116;2024-01-10T10:30:13;-1.20;78.80
5334;DHT22;2689;50.954;7.116;2024-01-10T10:32:40;-1.00;78.70
5334;DHT22;2689;50.954;7.116;2024-01-10T10:35:07;-0.80;77.80
5334;DHT22;2689;50.954;7.116;2024-01-10T10:37:34;-0.80;76.50
5334;DHT22;2689;50.954;7.116;2024-01-10T10:40:01;-0.80;76.70
5334;DHT22;2689;50.954;7.116;2024-01-10T10:42:31;-0.80;76.10
5334;DHT22;2689;50.954;7.116;2024-01-10T10:45:02;-0.80;75.90
5334;DHT22;2689;50.954;7.116;2024-01-10T10:47:32;-0.80;75.80
5334;DHT22;2689;50.954;7.116;2024-01-10T10:50:03;-0.90;75.80
5334;DHT22;2689;50.954;7.116;2024-01-10T10:52:31;-1.00;76.20
5334;DHT22;2689;50.954;7.116;2024-01-10T10:54:59;-1.00;77.10
5334;DHT22;2689;50.954;7.116;2024-01-10T10:57:26;-0.90;77.50
5334;DHT22;2689;50.954;7.116;2024-01-10T10:59:55;-0.90;77.60
5334;DHT22;2689;50.954;7.116;2024-01-10T11:02:24;-0.90;77.20
5334;DHT22;2689;50.954;7.116;2024-01-10T11:04:54;-0.90;77.00
5334;DHT22;2689;50.954;7.116;2024-01-10T11:07:21;-0.80;77.60
5334;DHT22;2689;50.954;7.116;2024-01-10T11:09:49;-0.60;78.30
5334;DHT22;2689;50.954;7.116;2024-01-10T11:12:27;-0.50;78.60
5334;DHT22;2689;50.954;7.116;2024-01-10T11:15:14;-0.30;77.70
5334;DHT22;2689;50.954;7.116;2024-01-10T11:18:07;-0.20;76.90
5334;DHT22;2689;50.954;7.116;2024-01-10T11:20:57;-0.10;76.00
5334;DHT22;2689;50.954;7.116;2024-01-10T11:23:41;0.00;75.50
5334;DHT22;2689;50.954;7.116;2024-01-10T11:26:11;0.20;75.10
5334;DHT22;2689;50.954;7.116;2024-01-10T11:28:39;0.30;74.80
5334;DHT22;2689;50.954;7.116;2024-01-10T11:31:08;0.40;74.70
5334;DHT22;2689;50.954;7.116;2024-01-10T11:33:36;0.60;74.60
5334;DHT22;2689;50.954;7.116;2024-01-10T11:36:15;0.60;74.00
5334;DHT22;2689;50.954;7.116;2024-01-10T11:38:44;0.70;74.10
5334;DHT22;2689;50.954;7.116;2024-01-10T11:41:19;0.80;73.90
5334;DHT22;2689;50.954;7.116;2024-01-10T11:47:08;0.80;74.00
5334;DHT22;2689;50.954;7.116;2024-01-10T11:49:35;0.90;74.20
5334;DHT22;2689;50.954;7.116;2024-01-10T11:52:02;1.00;74.60
5334;DHT22;2689;50.954;7.116;2024-01-10T11:54:40;1.20;75.60
5334;DHT22;2689;50.954;7.116;2024-01-10T11:57:20;1.30;74.20
5334;DHT22;2689;50.954;7.116;2024-01-10T11:59:58;1.50;74.50
5334;DHT22;2689;50.954;7.116;2024-01-10T12:02:29;1.60;73.10
5334;DHT22;2689;50.954;7.116;2024-01-10T12:04:56;1.40;72.90
5334;DHT22;2689;50.954;7.116;2024-01-10T12:07:22;1.60;73.10
5334;DHT22;2689;50.954;7.116;2024-01-10T12:09:50;1.80;73.80
5334;DHT22;2689;50.954;7.116;2024-01-10T12:12:17;1.80;71.10
5334;DHT22;2689;50.954;7.116;2024-01-10T12:14:44;1.80;67.90
5334;DHT22;2689;50.954;7.116;2024-01-10T12:17:11;1.80;67.70
5334;DHT22;2689;50.954;7.116;2024-01-10T12:19:40;2.00;67.30
5334;DHT22;2689;50.954;7.116;2024-01-10T12:22:10;2.00;66.20
5334;DHT22;2689;50.954;7.116;2024-01-10T12:24:42;2.10;66.30
5334;DHT22;2689;50.954;7.116;2024-01-10T12:27:11;2.10;66.00
5334;DHT22;2689;50.954;7.116;2024-01-10T12:29:38;2.30;66.80
5334;DHT22;2689;50.954;7.116;2024-01-10T12:32:05;2.40;65.20
5334;DHT22;2689;50.954;7.116;2024-01-10T12:34:38;2.60;65.90
5334;DHT22;2689;50.954;7.116;2024-01-10T12:37:06;2.50;64.40
5334;DHT22;2689;50.954;7.116;2024-01-10T12:39:33;2.40;64.10
5334;DHT22;2689;50.954;7.116;2024-01-10T12:42:00;2.50;64.60
5334;DHT22;2689;50.954;7.116;2024-01-10T12:44:29;2.80;65.30
5334;DHT22;2689;50.954;7.116;2024-01-10T12:46:56;2.80;64.90
5334;DHT22;2689;50.954;7.116;2024-01-10T12:49:23;2.70;64.50
5334;DHT22;2689;50.954;7.116;2024-01-10T12:51:50;2.80;65.00
5334;DHT22;2689;50.954;7.116;2024-01-10T12:54:18;2.80;64.10
5334;DHT22;2689;50.954;7.116;2024-01-10T12:56:45;2.80;64.10
5334;DHT22;2689;50.954;7.116;2024-01-10T12:59:12;2.70;63.70
5334;DHT22;2689;50.954;7.116;2024-01-10T13:01:39;2.40;63.10
5334;DHT22;2689;50.954;7.116;2024-01-10T13:04:07;2.30;64.10
5334;DHT22;2689;50.954;7.116;2024-01-10T13:06:34;2.30;64.70
5334;DHT22;2689;50.954;7.116;2024-01-10T13:09:00;2.40;64.90
5334;DHT22;2689;50.954;7.116;2024-01-10T13:11:29;2.30;64.50
5334;DHT22;2689;50.954;7.116;2024-01-10T13:13:58;2.40;64.80
5334;DHT22;2689;50.954;7.116;2024-01-10T13:16:26;2.40;65.10
5334;DHT22;2689;50.954;7.116;2024-01-10T13:18:52;2.30;64.60
5334;DHT22;2689;50.954;7.116;2024-01-10T13:21:22;2.40;65.10
5334;DHT22;2689;50.954;7.116;2024-01-10T13:23:49;2.50;65.30
5334;DHT22;2689;50.954;7.116;2024-01-10T13:26:16;2.40;65.30
5334;DHT22;2689;50.954;7.116;2024-01-10T13:28:45;2.40;65.50
5334;DHT22;2689;50.954;7.116;2024-01-10T13:31:11;2.20;64.60
5334;DHT22;2689;50.954;7.116;2024-01-10T13:33:38;2.10;65.00
5334;DHT22;2689;50.954;7.116;2024-01-10T13:36:05;2.30;65.90
5334;DHT22;2689;50.954;7.116;2024-01-10T13:38:32;2.40;65.20
5334;DHT22;2689;50.954;7.116;2024-01-10T13:41:00;2.20;64.60
5334;DHT22;2689;50.954;7.116;2024-01-10T13:43:27;2.10;64.90
5334;DHT22;2689;50.954;7.116;2024-01-10T13:45:56;2.00;65.10
5334;DHT22;2689;50.954;7.116;2024-01-10T13:48:23;2.00;65.70
5334;DHT22;2689;50.954;7.116;2024-01-10T13:50:50;2.00;65.60
5334;DHT22;2689;50.954;7.116;2024-01-10T13:53:16;1.90;65.40
5334;DHT22;2689;50.954;7.116;2024-01-10T13:55:43;2.00;66.10
5334;DHT22;2689;50.954;7.116;2024-01-10T13:58:11;2.20;66.30
5334;DHT22;2689;50.954;7.116;2024-01-10T14:00:38;2.30;66.20
5334;DHT22;2689;50.954;7.116;2024-01-10T14:03:06;2.30;66.10
5334;DHT22;2689;50.954;7.116;2024-01-10T14:05:33;2.30;65.50
5334;DHT22;2689;50.954;7.116;2024-01-10T14:08:01;2.50;65.80
5334;DHT22;2689;50.954;7.116;2024-01-10T14:10:28;2.60;66.90
5334;DHT22;2689;50.954;7.116;2024-01-10T14:12:54;2.60;66.70
5334;DHT22;2689;50.954;7.116;2024-01-10T14:15:21;2.70;66.70
5334;DHT22;2689;50.954;7.116;2024-01-10T14:17:48;2.70;66.70
5334;DHT22;2689;50.954;7.116;2024-01-10T14:20:18;2.60;65.90
5334;DHT22;2689;50.954;7.116;2024-01-10T14:22:46;2.50;66.20
5334;DHT22;2689;50.954;7.116;2024-01-10T14:25:15;2.60;66.70
5334;DHT22;2689;50.954;7.116;2024-01-10T14:27:42;2.80;66.80
5334;DHT22;2689;50.954;7.116;2024-01-10T14:30:09;2.80;66.90
5334;DHT22;2689;50.954;7.116;2024-01-10T14:32:36;2.80;66.60
5334;DHT22;2689;50.954;7.116;2024-01-10T14:35:04;2.70;66.70
5334;DHT22;2689;50.954;7.116;2024-01-10T14:37:32;2.70;66.90
5334;DHT22;2689;50.954;7.116;2024-01-10T14:40:02;2.70;67.00
5334;DHT22;2689;50.954;7.116;2024-01-10T14:42:29;2.50;67.00
5334;DHT22;2689;50.954;7.116;2024-01-10T14:44:58;2.50;67.00
5334;DHT22;2689;50.954;7.116;2024-01-10T14:47:27;2.60;67.50
5334;DHT22;2689;50.954;7.116;2024-01-10T14:49:54;2.60;67.80
5334;DHT22;2689;50.954;7.116;2024-01-10T14:52:23;2.60;67.30
5334;DHT22;2689;50.954;7.116;2024-01-10T14:54:52;2.60;67.00
5334;DHT22;2689;50.954;7.116;2024-01-10T14:57:19;2.50;66.90
5334;DHT22;2689;50.954;7.116;2024-01-10T14:59:46;2.50;67.20
5334;DHT22;2689;50.954;7.116;2024-01-10T15:02:14;2.70;68.40
5334;DHT22;2689;50.954;7.116;2024-01-10T15:04:41;3.20;70.10
5334;DHT22;2689;50.954;7.116;2024-01-10T15:07:09;3.70;67.90
5334;DHT22;2689;50.954;7.116;2024-01-10T15:09:37;4.10;66.70
5334;DHT22;2689;50.954;7.116;2024-01-10T15:12:06;4.30;64.50
5334;DHT22;2689;50.954;7.116;2024-01-10T15:14:34;4.10;63.60
5334;DHT22;2689;50.954;7.116;2024-01-10T15:17:02;3.90;63.20
5334;DHT22;2689;50.954;7.116;2024-01-10T15:19:31;3.60;63.60
5334;DHT22;2689;50.954;7.116;2024-01-10T15:21:58;3.20;64.30
5334;DHT22;2689;50.954;7.116;2024-01-10T15:24:25;3.30;65.20
5334;DHT22;2689;50.954;7.116;2024-01-10T15:26:52;3.20;65.40
5334;DHT22;2689;50.954;7.116;2024-01-10T15:29:20;2.90;65.70
5334;DHT22;2689;50.954;7.116;2024-01-10T15:31:47;2.70;66.20
5334;DHT22;2689;50.954;7.116;2024-01-10T15:34:14;2.60;66.60
5334;DHT22;2689;50.954;7.116;2024-01-10T15:36:41;2.50;66.40
5334;DHT22;2689;50.954;7.116;2024-01-10T15:39:08;2.50;67.50
5334;DHT22;2689;50.954;7.116;2024-01-10T15:41:37;2.40;67.30
5334;DHT22;2689;50.954;7.116;2024-01-10T15:44:04;2.40;67.70
5334;DHT22;2689;50.954;7.116;2024-01-10T15:46:33;2.20;67.90
5334;DHT22;2689;50.954;7.116;2024-01-10T15:48:59;2.20;68.30
5334;DHT22;2689;50.954;7.116;2024-01-10T15:51:26;1.90;68.90
5334;DHT22;2689;50.954;7.116;2024-01-10T15:53:53;1.70;69.80
5334;DHT22;2689;50.954;7.116;2024-01-10T15:56:23;1.60;70.30
5334;DHT22;2689;50.954;7.116;2024-01-10T15:58:50;1.60;70.50
5334;DHT22;2689;50.954;7.116;2024-01-10T16:01:17;1.50;70.90
5334;DHT22;2689;50.954;7.116;2024-01-10T16:03:44;1.40;71.20
5334;DHT22;2689;50.954;7.116;2024-01-10T16:06:11;1.30;72.10
5334;DHT22;2689;50.954;7.116;2024-01-10T16:08:38;1.20;72.90
5334;DHT22;2689;50.954;7.116;2024-01-10T16:11:05;1.20;73.20
5334;DHT22;2689;50.954;7.116;2024-01-10T16:13:32;1.20;73.50